createdAt,value
2019-04-01T00:00:07.728Z,936.49
2019-04-01T00:01:07.792Z,936.50
2019-04-01T00:02:07.722Z,936.55
2019-04-01T00:03:07.696Z,936.49
2019-04-01T00:04:07.683Z,936.51
2019-04-01T00:05:07.673Z,936.47
2019-04-01T00:06:07.670Z,936.43
2019-04-01T00:07:07.671Z,936.41
2019-04-01T00:08:07.656Z,936.41
2019-04-01T00:09:07.636Z,936.46
2019-04-01T00:10:07.627Z,936.42
2019-04-01T00:11:07.605Z,936.39
2019-04-01T00:12:07.610Z,936.40
2019-04-01T00:13:07.582Z,936.36
2019-04-01T00:14:07.574Z,936.33
2019-04-01T00:15:07.563Z,936.37
2019-04-01T00:16:07.551Z,936.41
2019-04-01T00:17:07.575Z,936.45
2019-04-01T00:18:07.527Z,936.44
2019-04-01T00:19:07.523Z,936.50
2019-04-01T00:20:07.506Z,936.51
2019-04-01T00:21:07.495Z,936.46
2019-04-01T00:22:07.499Z,936.49
2019-04-01T00:23:07.622Z,936.49
2019-04-01T00:24:07.462Z,936.46
2019-04-01T00:25:07.457Z,936.44
2019-04-01T00:26:07.438Z,936.44
2019-04-01T00:27:07.445Z,936.40
2019-04-01T00:28:07.416Z,936.41
2019-04-01T00:29:07.411Z,936.40
2019-04-01T00:30:07.398Z,936.39
2019-04-01T00:31:07.382Z,936.38
2019-04-01T00:32:07.385Z,936.38
2019-04-01T00:33:07.360Z,936.34
2019-04-01T00:34:07.349Z,936.35
2019-04-01T00:35:07.338Z,936.30
2019-04-01T00:36:07.339Z,936.31
2019-04-01T00:37:07.330Z,936.31
2019-04-01T00:38:07.306Z,936.34
2019-04-01T00:39:07.298Z,936.30
2019-04-01T00:40:07.370Z,936.35
2019-04-01T00:41:07.271Z,936.32
2019-04-01T00:42:07.274Z,936.28
2019-04-01T00:43:07.248Z,936.37
2019-04-01T00:44:07.239Z,936.30
2019-04-01T00:45:07.227Z,936.31
2019-04-01T00:46:07.219Z,936.30
2019-04-01T00:47:07.224Z,936.27
2019-04-01T00:48:07.204Z,936.28
2019-04-01T00:49:07.182Z,936.26
2019-04-01T00:50:07.171Z,936.27
2019-04-01T00:51:07.160Z,936.27
2019-04-01T00:52:07.148Z,936.28
2019-04-01T00:53:07.151Z,936.28
2019-04-01T00:54:07.126Z,936.29
2019-04-01T00:55:07.115Z,936.30
2019-04-01T00:56:07.103Z,936.28
2019-04-01T00:57:07.092Z,936.25
2019-04-01T00:58:07.103Z,936.27
2019-04-01T00:59:07.077Z,936.23
2019-04-01T01:00:07.059Z,936.21
2019-04-01T01:01:07.048Z,936.20
2019-04-01T01:02:07.038Z,936.16
2019-04-01T01:03:07.042Z,936.14
2019-04-01T01:04:07.014Z,936.14
2019-04-01T01:05:07.024Z,936.20
2019-04-01T01:06:06.992Z,936.16
2019-04-01T01:07:06.983Z,936.20
2019-04-01T01:08:06.986Z,936.19
2019-04-01T01:09:06.964Z,936.18
2019-04-01T01:10:06.954Z,936.21
2019-04-01T01:11:06.946Z,936.21
2019-04-01T01:12:06.925Z,936.19
2019-04-01T01:13:06.928Z,936.20
2019-04-01T01:14:06.903Z,936.19
2019-04-01T01:15:06.894Z,936.19
2019-04-01T01:16:06.881Z,936.20
2019-04-01T01:17:06.873Z,936.21
2019-04-01T01:18:06.873Z,936.20
2019-04-01T01:19:06.849Z,936.19
2019-04-01T01:20:06.835Z,936.24
2019-04-01T01:21:06.824Z,936.22
2019-04-01T01:22:06.817Z,936.22
2019-04-01T01:23:06.829Z,936.21
2019-04-01T01:24:06.794Z,936.20
2019-04-01T01:25:06.783Z,936.23
2019-04-01T01:26:06.770Z,936.18
2019-04-01T01:27:06.765Z,936.20
2019-04-01T01:28:06.766Z,936.20
2019-04-01T01:29:06.735Z,936.22
2019-04-01T01:30:06.725Z,936.21
2019-04-01T01:31:06.717Z,936.20
2019-04-01T01:32:06.712Z,936.18
2019-04-01T01:33:06.697Z,936.18
2019-04-01T01:34:06.697Z,936.18
2019-04-01T01:35:06.668Z,936.16
2019-04-01T01:36:06.656Z,936.19
2019-04-01T01:37:06.645Z,936.14
2019-04-01T01:38:06.634Z,936.12
2019-04-01T01:39:06.637Z,936.06
2019-04-01T01:40:06.612Z,936.09
2019-04-01T01:41:06.601Z,936.10
2019-04-01T01:42:06.592Z,936.07
2019-04-01T01:43:06.580Z,936.09
2019-04-01T01:44:06.584Z,936.09
2019-04-01T01:45:06.569Z,936.09
2019-04-01T01:46:06.545Z,936.10
2019-04-01T01:47:06.534Z,936.09
2019-04-01T01:48:06.525Z,936.12
2019-04-01T01:49:06.530Z,936.09
2019-04-01T01:50:06.505Z,936.12
2019-04-01T01:51:06.505Z,936.14
2019-04-01T01:52:06.480Z,936.14
2019-04-01T01:53:06.467Z,936.08
2019-04-01T01:54:06.471Z,936.12
2019-04-01T01:55:06.445Z,936.10
2019-04-01T01:56:06.438Z,936.05
2019-04-01T01:57:06.423Z,936.06
2019-04-01T01:58:06.411Z,936.06
2019-04-01T01:59:06.419Z,936.05
2019-04-01T02:00:06.389Z,936.03
2019-04-01T02:01:06.380Z,936.08
2019-04-01T02:02:06.371Z,936.03
2019-04-01T02:03:06.354Z,936.07
2019-04-01T02:04:06.358Z,936.12
2019-04-01T02:05:06.333Z,936.06
2019-04-01T02:06:06.323Z,936.08
2019-04-01T02:07:06.314Z,936.12
2019-04-01T02:08:06.310Z,936.13
2019-04-01T02:09:06.301Z,936.12
2019-04-01T02:10:06.278Z,936.09
2019-04-01T02:11:06.267Z,936.09
2019-04-01T02:12:06.264Z,936.05
2019-04-01T02:13:06.249Z,936.05
2019-04-01T02:14:06.257Z,936.08
2019-04-01T02:15:06.225Z,936.09
2019-04-01T02:16:06.211Z,936.05
2019-04-01T02:17:06.197Z,936.06
2019-04-01T02:18:06.187Z,936.01
2019-04-01T02:19:06.182Z,936.01
2019-04-01T02:20:06.186Z,936.00
2019-04-01T02:21:06.155Z,935.95
2019-04-01T02:22:06.143Z,935.99
2019-04-01T02:23:06.134Z,935.95
2019-04-01T02:24:06.120Z,935.97
2019-04-01T02:25:06.126Z,935.97
2019-04-01T02:26:06.097Z,935.96
2019-04-01T02:27:06.092Z,935.95
2019-04-01T02:28:06.076Z,935.93
2019-04-01T02:29:06.071Z,935.94
2019-04-01T02:30:06.080Z,935.95
2019-04-01T02:31:06.053Z,935.95
2019-04-01T02:32:06.033Z,935.94
2019-04-01T02:33:06.021Z,935.94
2019-04-01T02:34:06.011Z,935.94
2019-04-01T02:35:06.016Z,935.93
2019-04-01T02:36:06.001Z,935.91
2019-04-01T02:37:05.992Z,935.94
2019-04-01T02:38:05.966Z,935.96
2019-04-01T02:39:05.975Z,935.95
2019-04-01T02:40:05.976Z,935.93
2019-04-01T02:41:05.930Z,935.95
2019-04-01T02:42:05.951Z,935.96
2019-04-01T02:43:05.910Z,935.95
2019-04-01T02:44:05.898Z,935.97
2019-04-01T02:45:05.907Z,935.98
2019-04-01T02:46:05.876Z,935.96
2019-04-01T02:47:05.865Z,936.00
2019-04-01T02:48:05.867Z,936.00
2019-04-01T02:49:05.842Z,935.98
2019-04-01T02:50:05.848Z,936.03
2019-04-01T02:51:05.819Z,935.98
2019-04-01T02:52:05.844Z,935.99
2019-04-01T02:53:05.822Z,935.99
2019-04-01T02:54:05.785Z,935.97
2019-04-01T02:55:06.797Z,935.95
2019-04-01T02:56:05.765Z,935.96
2019-04-01T02:57:05.759Z,935.96
2019-04-01T02:58:05.749Z,935.95
2019-04-01T02:59:05.743Z,935.93
2019-04-01T03:00:05.737Z,935.91
2019-04-01T03:01:05.710Z,935.94
2019-04-01T03:02:05.696Z,935.92
2019-04-01T03:03:05.687Z,935.93
2019-04-01T03:04:05.677Z,935.96
2019-04-01T03:05:05.684Z,935.92
2019-04-01T03:06:05.652Z,935.92
2019-04-01T03:07:05.697Z,935.93
2019-04-01T03:08:05.633Z,935.96
2019-04-01T03:09:05.631Z,935.95
2019-04-01T03:10:05.629Z,935.93
2019-04-01T03:11:09.888Z,935.96
2019-04-01T03:12:06.592Z,935.95
2019-04-01T03:13:05.573Z,935.96
2019-04-01T03:14:05.565Z,935.95
2019-04-01T03:15:05.581Z,935.96
2019-04-01T03:16:05.541Z,935.87
2019-04-01T03:17:05.533Z,935.90
2019-04-01T03:18:05.518Z,935.91
2019-04-01T03:19:05.510Z,935.91
2019-04-01T03:20:05.503Z,935.91
2019-04-01T03:21:05.508Z,935.90
2019-04-01T03:22:05.476Z,935.90
2019-04-01T03:23:05.464Z,935.89
2019-04-01T03:24:05.460Z,935.86
2019-04-01T03:25:05.441Z,935.90
2019-04-01T03:26:05.464Z,935.91
2019-04-01T03:27:05.417Z,935.89
2019-04-01T03:28:05.415Z,935.88
2019-04-01T03:29:05.395Z,935.88
2019-04-01T03:30:05.385Z,935.88
2019-04-01T03:31:05.387Z,935.88
2019-04-01T03:32:05.382Z,935.87
2019-04-01T03:33:05.358Z,935.87
2019-04-01T03:34:05.357Z,935.88
2019-04-01T03:35:05.329Z,935.89
2019-04-01T03:36:05.330Z,935.84
2019-04-01T03:37:05.307Z,935.79
2019-04-01T03:38:05.295Z,935.86
2019-04-01T03:39:05.293Z,935.80
2019-04-01T03:40:05.274Z,935.87
2019-04-01T03:41:05.297Z,935.81
2019-04-01T03:42:05.252Z,935.84
2019-04-01T03:43:05.245Z,935.80
2019-04-01T03:44:05.228Z,935.79
2019-04-01T03:45:05.233Z,935.82
2019-04-01T03:46:05.227Z,935.87
2019-04-01T03:47:05.195Z,935.87
2019-04-01T03:48:05.183Z,935.81
2019-04-01T03:49:05.202Z,935.89
2019-04-01T03:50:05.163Z,935.85
2019-04-01T03:51:05.170Z,935.82
2019-04-01T03:52:09.820Z,935.85
2019-04-01T03:53:06.127Z,935.82
2019-04-01T03:54:05.116Z,935.78
2019-04-01T03:55:05.119Z,935.80
2019-04-01T03:56:05.116Z,935.77
2019-04-01T03:57:05.099Z,935.78
2019-04-01T03:58:05.074Z,935.82
2019-04-01T03:59:05.062Z,935.83
2019-04-01T04:00:05.049Z,935.81
2019-04-01T04:01:05.058Z,935.80
2019-04-01T04:02:05.034Z,935.80
2019-04-01T04:03:05.015Z,935.83
2019-04-01T04:04:05.005Z,935.81
2019-04-01T04:05:04.994Z,935.81
2019-04-01T04:06:05.006Z,935.83
2019-04-01T04:07:04.971Z,935.83
2019-04-01T04:08:04.972Z,935.79
2019-04-01T04:09:04.947Z,935.82
2019-04-01T04:10:04.939Z,935.84
2019-04-01T04:11:04.942Z,935.86
2019-04-01T04:12:04.932Z,935.86
2019-04-01T04:13:04.909Z,935.87
2019-04-01T04:14:04.902Z,935.84
2019-04-01T04:15:04.882Z,935.87
2019-04-01T04:16:04.909Z,935.85
2019-04-01T04:17:04.865Z,935.87
2019-04-01T04:18:04.850Z,935.89
2019-04-01T04:19:04.857Z,935.85
2019-04-01T04:20:04.834Z,935.88
2019-04-01T04:21:04.828Z,935.88
2019-04-01T04:22:04.809Z,935.85
2019-04-01T04:23:04.792Z,935.88
2019-04-01T04:24:04.782Z,935.88
2019-04-01T04:25:04.774Z,935.89
2019-04-01T04:26:04.783Z,935.89
2019-04-01T04:27:04.747Z,935.88
2019-04-01T04:28:04.737Z,935.88
2019-04-01T04:29:04.724Z,935.87
2019-04-01T04:30:04.716Z,935.87
2019-04-01T04:31:04.722Z,935.87
2019-04-01T04:32:04.692Z,935.86
2019-04-01T04:33:04.682Z,935.95
2019-04-01T04:34:04.691Z,935.87
2019-04-01T04:35:04.668Z,935.89
2019-04-01T04:36:04.670Z,935.96
2019-04-01T04:37:04.636Z,935.95
2019-04-01T04:38:04.625Z,935.95
2019-04-01T04:39:04.613Z,935.93
2019-04-01T04:40:04.603Z,935.94
2019-04-01T04:41:04.593Z,935.99
2019-04-01T04:42:04.593Z,935.94
2019-04-01T04:43:04.573Z,935.96
2019-04-01T04:44:04.559Z,935.95
2019-04-01T04:45:04.547Z,935.95
2019-04-01T04:46:04.535Z,935.95
2019-04-01T04:47:04.538Z,935.97
2019-04-01T04:48:04.519Z,935.95
2019-04-01T04:49:04.504Z,935.95
2019-04-01T04:50:04.491Z,935.94
2019-04-01T04:51:04.479Z,935.94
2019-04-01T04:52:04.828Z,935.89
2019-04-01T04:53:04.461Z,935.91
2019-04-01T04:54:04.456Z,935.89
2019-04-01T04:55:04.435Z,935.93
2019-04-01T04:56:04.433Z,935.93
2019-04-01T04:57:04.431Z,935.94
2019-04-01T04:58:04.406Z,935.94
2019-04-01T04:59:04.395Z,935.90
2019-04-01T05:00:04.379Z,935.91
2019-04-01T05:01:04.372Z,935.95
2019-04-01T05:02:04.371Z,935.92
2019-04-01T05:03:04.346Z,935.91
2019-04-01T05:04:04.334Z,935.92
2019-04-01T05:05:04.326Z,935.85
2019-04-01T05:06:04.311Z,935.88
2019-04-01T05:07:04.316Z,935.89
2019-04-01T05:08:04.288Z,935.84
2019-04-01T05:09:04.279Z,935.89
2019-04-01T05:10:04.270Z,935.88
2019-04-01T05:11:04.277Z,935.86
2019-04-01T05:12:04.437Z,935.84
2019-04-01T05:13:04.234Z,935.86
2019-04-01T05:14:04.223Z,935.90
2019-04-01T05:15:04.217Z,935.88
2019-04-01T05:16:04.201Z,935.92
2019-04-01T05:17:04.187Z,935.88
2019-04-01T05:18:04.191Z,935.90
2019-04-01T05:19:04.168Z,935.94
2019-04-01T05:20:04.155Z,935.94
2019-04-01T05:21:04.150Z,935.91
2019-04-01T05:22:04.133Z,935.94
2019-04-01T05:23:04.152Z,935.93
2019-04-01T05:24:04.109Z,935.89
2019-04-01T05:25:04.098Z,935.91
2019-04-01T05:26:04.087Z,935.96
2019-04-01T05:27:04.078Z,935.92
2019-04-01T05:28:04.083Z,935.94
2019-04-01T05:29:04.056Z,935.96
2019-04-01T05:30:12.151Z,935.97
2019-04-01T05:31:04.035Z,936.00
2019-04-01T05:32:04.028Z,936.01
2019-04-01T05:33:04.024Z,935.98
2019-04-01T05:34:04.027Z,935.97
2019-04-01T05:35:03.986Z,936.01
2019-04-01T05:36:03.977Z,935.97
2019-04-01T05:37:03.963Z,935.98
2019-04-01T05:38:03.976Z,935.97
2019-04-01T05:39:03.940Z,936.02
2019-04-01T05:40:03.930Z,935.99
2019-04-01T05:41:03.930Z,936.00
2019-04-01T05:42:03.907Z,936.00
2019-04-01T05:43:03.910Z,935.99
2019-04-01T05:44:03.884Z,936.00
2019-04-01T05:45:03.876Z,936.02
2019-04-01T05:46:03.867Z,936.00
2019-04-01T05:47:03.850Z,936.05
2019-04-01T05:48:03.856Z,935.99
2019-04-01T05:49:03.828Z,936.03
2019-04-01T05:50:03.816Z,936.01
2019-04-01T05:51:03.805Z,936.04
2019-04-01T05:52:03.811Z,936.04
2019-04-01T05:53:03.804Z,936.05
2019-04-01T05:54:03.774Z,936.08
2019-04-01T05:55:03.766Z,936.06
2019-04-01T05:56:03.752Z,936.14
2019-04-01T05:57:03.737Z,936.12
2019-04-01T05:58:03.755Z,936.11
2019-04-01T05:59:03.731Z,936.10
2019-04-01T06:00:03.705Z,936.13
2019-04-01T06:01:03.695Z,936.04
2019-04-01T06:02:03.681Z,936.06
2019-04-01T06:03:03.684Z,936.07
2019-04-01T06:04:03.665Z,936.05
2019-04-01T06:05:03.646Z,936.08
2019-04-01T06:06:03.635Z,936.11
2019-04-01T06:07:03.631Z,936.11
2019-04-01T06:08:03.651Z,936.07
2019-04-01T06:09:03.601Z,936.12
2019-04-01T06:10:03.597Z,936.09
2019-04-01T06:11:03.578Z,936.10
2019-04-01T06:12:03.566Z,936.09
2019-04-01T06:13:03.555Z,936.09
2019-04-01T06:14:03.557Z,936.10
2019-04-01T06:15:03.532Z,936.10
2019-04-01T06:16:03.527Z,936.11
2019-04-01T06:17:03.514Z,936.14
2019-04-01T06:18:03.503Z,936.12
2019-04-01T06:19:05.983Z,936.11
2019-04-01T06:20:03.477Z,936.11
2019-04-01T06:21:03.464Z,936.12
2019-04-01T06:22:03.462Z,936.13
2019-04-01T06:23:03.444Z,936.18
2019-04-01T06:24:03.446Z,936.18
2019-04-01T06:25:03.445Z,936.16
2019-04-01T06:26:03.413Z,936.15
2019-04-01T06:27:03.403Z,936.16
2019-04-01T06:28:03.398Z,936.13
2019-04-01T06:29:03.391Z,936.14
2019-04-01T06:30:03.365Z,936.14
2019-04-01T06:31:03.354Z,936.14
2019-04-01T06:32:03.342Z,936.16
2019-04-01T06:33:03.331Z,936.13
2019-04-01T06:34:03.339Z,936.17
2019-04-01T06:35:03.314Z,936.16
2019-04-01T06:36:03.302Z,936.17
2019-04-01T06:37:03.286Z,936.17
2019-04-01T06:38:03.365Z,936.18
2019-04-01T06:39:03.278Z,936.18
2019-04-01T06:40:03.264Z,936.18
2019-04-01T06:41:03.249Z,936.19
2019-04-01T06:42:03.232Z,936.16
2019-04-01T06:43:03.221Z,936.12
2019-04-01T06:44:03.223Z,936.15
2019-04-01T06:45:03.198Z,936.10
2019-04-01T06:46:03.198Z,936.14
2019-04-01T06:47:03.175Z,936.08
2019-04-01T06:48:03.165Z,936.09
2019-04-01T06:49:03.166Z,936.08
2019-04-01T06:50:03.145Z,936.08
2019-04-01T06:51:03.131Z,936.08
2019-04-01T06:52:03.132Z,936.07
2019-04-01T06:53:03.106Z,936.06
2019-04-01T06:54:03.116Z,936.05
2019-04-01T06:55:03.083Z,936.02
2019-04-01T06:56:03.072Z,936.05
2019-04-01T06:57:03.063Z,936.06
2019-04-01T06:58:03.066Z,936.04
2019-04-01T06:59:03.060Z,936.05
2019-04-01T07:00:03.030Z,936.08
2019-04-01T07:01:03.017Z,936.08
2019-04-01T07:02:03.005Z,936.09
2019-04-01T07:03:02.994Z,936.05
2019-04-01T07:04:03.009Z,936.11
2019-04-01T07:05:02.972Z,936.12
2019-04-01T07:06:02.961Z,936.08
2019-04-01T07:07:02.951Z,936.12
2019-04-01T07:08:02.938Z,936.06
2019-04-01T07:09:02.942Z,936.04
2019-04-01T07:10:02.930Z,936.04
2019-04-01T07:11:02.905Z,936.01
2019-04-01T07:12:02.896Z,936.02
2019-04-01T07:13:02.883Z,936.00
2019-04-01T07:14:02.896Z,936.04
2019-04-01T07:15:02.867Z,936.06
2019-04-01T07:16:14.718Z,936.07
2019-04-01T07:17:03.836Z,936.04
2019-04-01T07:18:02.827Z,936.06
2019-04-01T07:19:02.817Z,936.03
2019-04-01T07:20:02.822Z,936.02
2019-04-01T07:21:02.799Z,936.04
2019-04-01T07:22:02.792Z,935.99
2019-04-01T07:23:02.775Z,935.99
2019-04-01T07:24:02.760Z,936.00
2019-04-01T07:25:02.764Z,936.00
2019-04-01T07:26:02.744Z,936.05
2019-04-01T07:27:02.728Z,936.02
2019-04-01T07:28:02.724Z,936.00
2019-04-01T07:29:02.703Z,936.04
2019-04-01T07:30:02.708Z,936.03
2019-04-01T07:31:02.686Z,936.06
2019-04-01T07:32:02.670Z,936.02
2019-04-01T07:33:02.660Z,936.04
2019-04-01T07:34:02.665Z,936.05
2019-04-01T07:35:02.652Z,936.00
2019-04-01T07:36:02.626Z,936.02
2019-04-01T07:37:02.619Z,936.02
2019-04-01T07:38:02.605Z,936.00
2019-04-01T07:39:02.593Z,936.03
2019-04-01T07:40:02.602Z,936.04
2019-04-01T07:41:02.573Z,936.02
2019-04-01T07:42:02.566Z,936.01
2019-04-01T07:43:02.547Z,936.02
2019-04-01T07:44:02.539Z,936.02
2019-04-01T07:45:02.549Z,936.02
2019-04-01T07:46:02.524Z,936.07
2019-04-01T07:47:02.508Z,936.04
2019-04-01T07:48:02.493Z,936.04
2019-04-01T07:49:02.533Z,936.05
2019-04-01T07:50:02.540Z,936.00
2019-04-01T07:51:02.459Z,936.01
2019-04-01T07:52:02.459Z,936.03
2019-04-01T07:53:02.436Z,936.04
2019-04-01T07:54:02.428Z,936.06
2019-04-01T07:55:02.414Z,936.02
2019-04-01T07:56:02.854Z,936.05
2019-04-01T07:57:02.394Z,936.02
2019-04-01T07:58:02.390Z,936.02
2019-04-01T07:59:02.370Z,936.03
2019-04-01T08:00:02.361Z,936.04
2019-04-01T08:01:02.361Z,936.05
2019-04-01T08:02:02.336Z,936.08
2019-04-01T08:03:02.327Z,936.02
2019-04-01T08:04:02.324Z,936.03
2019-04-01T08:05:02.304Z,936.00
2019-04-01T08:06:02.306Z,936.00
2019-04-01T08:07:02.281Z,936.02
2019-04-01T08:08:02.269Z,936.04
2019-04-01T08:09:02.263Z,936.05
2019-04-01T08:10:02.275Z,936.07
2019-04-01T08:11:02.250Z,936.06
2019-04-01T08:12:02.228Z,936.06
2019-04-01T08:13:02.214Z,936.06
2019-04-01T08:14:02.204Z,936.07
2019-04-01T08:15:02.191Z,936.04
2019-04-01T08:16:02.204Z,936.04
2019-04-01T08:17:02.172Z,936.06
2019-04-01T08:18:02.161Z,936.07
2019-04-01T08:19:02.146Z,936.05
2019-04-01T08:20:02.135Z,936.04
2019-04-01T08:21:02.149Z,936.05
2019-04-01T08:22:02.127Z,936.04
2019-04-01T08:23:02.127Z,935.99
2019-04-01T08:24:02.096Z,936.03
2019-04-01T08:25:02.079Z,936.02
2019-04-01T08:26:02.083Z,936.02
2019-04-01T08:27:02.060Z,936.05
2019-04-01T08:28:02.056Z,936.07
2019-04-01T08:29:02.036Z,936.04
2019-04-01T08:30:02.024Z,936.07
2019-04-01T08:31:02.029Z,936.06
2019-04-01T08:32:02.003Z,936.02
2019-04-01T08:33:01.993Z,936.04
2019-04-01T08:34:01.990Z,936.03
2019-04-01T08:35:01.984Z,935.96
2019-04-01T08:36:01.973Z,935.99
2019-04-01T08:37:01.949Z,936.04
2019-04-01T08:38:01.941Z,936.00
2019-04-01T08:39:01.924Z,936.02
2019-04-01T08:40:01.924Z,935.94
2019-04-01T08:41:01.916Z,935.96
2019-04-01T08:42:01.892Z,935.92
2019-04-01T08:43:01.880Z,935.96
2019-04-01T08:44:03.326Z,935.89
2019-04-01T08:45:01.859Z,935.99
2019-04-01T08:46:01.871Z,935.92
2019-04-01T08:47:01.836Z,935.95
2019-04-01T08:48:01.825Z,935.95
2019-04-01T08:49:01.813Z,935.93
2019-04-01T08:50:01.803Z,935.97
2019-04-01T08:51:01.806Z,935.93
2019-04-01T08:52:01.787Z,935.95
2019-04-01T08:53:01.769Z,935.95
2019-04-01T08:54:01.759Z,935.97
2019-04-01T08:55:01.749Z,935.95
2019-04-01T08:56:01.787Z,935.97
2019-04-01T08:57:01.724Z,935.93
2019-04-01T08:58:01.721Z,935.95
2019-04-01T08:59:01.706Z,935.92
2019-04-01T09:00:01.692Z,935.92
2019-04-01T09:01:01.683Z,935.89
2019-04-01T09:02:01.683Z,935.87
2019-04-01T09:03:01.660Z,935.90
2019-04-01T09:04:01.651Z,935.91
2019-04-01T09:05:01.637Z,935.91
2019-04-01T09:06:01.784Z,935.93
2019-04-01T09:07:01.632Z,935.89
2019-04-01T09:08:01.609Z,935.87
2019-04-01T09:09:01.593Z,935.89
2019-04-01T09:10:01.594Z,935.89
2019-04-01T09:11:01.571Z,935.91
2019-04-01T09:12:01.575Z,935.91
2019-04-01T09:13:01.548Z,935.92
2019-04-01T09:14:01.537Z,935.90
2019-04-01T09:15:01.527Z,935.91
2019-04-01T09:16:01.522Z,935.89
2019-04-01T09:17:01.521Z,935.89
2019-04-01T09:18:01.493Z,935.92
2019-04-01T09:19:01.482Z,935.94
2019-04-01T09:20:01.482Z,935.93
2019-04-01T09:21:01.460Z,935.94
2019-04-01T09:22:01.523Z,935.90
2019-04-01T09:23:01.438Z,935.94
2019-04-01T09:24:01.430Z,935.93
2019-04-01T09:25:01.422Z,935.89
2019-04-01T09:26:01.406Z,935.95
2019-04-01T09:27:01.411Z,935.94
2019-04-01T09:28:01.395Z,935.95
2019-04-01T09:29:01.372Z,935.94
2019-04-01T09:30:01.369Z,935.91
2019-04-01T09:31:01.350Z,935.92
2019-04-01T09:32:01.354Z,935.91
2019-04-01T09:33:01.328Z,935.95
2019-04-01T09:34:01.328Z,935.95
2019-04-01T09:35:01.306Z,935.95
2019-04-01T09:36:01.295Z,935.90
2019-04-01T09:37:01.297Z,935.87
2019-04-01T09:38:01.274Z,935.85
2019-04-01T09:39:01.263Z,935.84
2019-04-01T09:40:01.261Z,935.84
2019-04-01T09:41:01.243Z,935.82
2019-04-01T09:42:01.244Z,935.87
2019-04-01T09:43:01.218Z,935.83
2019-04-01T09:44:01.210Z,935.83
2019-04-01T09:45:01.216Z,935.78
2019-04-01T09:46:01.196Z,935.83
2019-04-01T09:47:01.189Z,935.84
2019-04-01T09:48:01.165Z,935.85
2019-04-01T09:49:01.154Z,935.85
2019-04-01T09:50:01.146Z,935.81
2019-04-01T09:51:01.132Z,935.84
2019-04-01T09:52:03.843Z,935.85
2019-04-01T09:53:01.117Z,935.81
2019-04-01T09:54:01.098Z,935.81
2019-04-01T09:55:01.088Z,935.80
2019-04-01T09:56:01.078Z,935.79
2019-04-01T09:57:16.128Z,935.80
2019-04-01T09:58:02.072Z,935.79
2019-04-01T09:59:01.048Z,935.83
2019-04-01T10:00:01.047Z,935.77
2019-04-01T10:01:01.025Z,935.74
2019-04-01T10:02:01.026Z,935.71
2019-04-01T10:03:01.002Z,935.74
2019-04-01T10:04:01.012Z,935.69
2019-04-01T10:05:00.985Z,935.74
2019-04-01T10:06:00.971Z,935.75
2019-04-01T10:07:00.975Z,935.73
2019-04-01T10:08:00.947Z,935.70
2019-04-01T10:09:00.938Z,935.66
2019-04-01T10:10:00.941Z,935.68
2019-04-01T10:11:00.916Z,935.67
2019-04-01T10:12:00.922Z,935.64
2019-04-01T10:13:00.894Z,935.62
2019-04-01T10:14:00.884Z,935.60
2019-04-01T10:15:00.875Z,935.65
2019-04-01T10:16:00.869Z,935.58
2019-04-01T10:17:00.871Z,935.56
2019-04-01T10:18:00.840Z,935.59
2019-04-01T10:19:00.830Z,935.56
2019-04-01T10:20:01.590Z,935.50
2019-04-01T10:21:00.809Z,935.56
2019-04-01T10:22:00.826Z,935.58
2019-04-01T10:23:00.788Z,935.59
2019-04-01T10:24:00.775Z,935.57
2019-04-01T10:25:00.764Z,935.57
2019-04-01T10:26:00.755Z,935.52
2019-04-01T10:27:00.757Z,935.51
2019-04-01T10:28:00.743Z,935.53
2019-04-01T10:29:00.723Z,935.53
2019-04-01T10:30:00.712Z,935.49
2019-04-01T10:31:00.701Z,935.47
2019-04-01T10:32:00.721Z,935.51
2019-04-01T10:33:02.348Z,935.50
2019-04-01T10:34:00.674Z,935.44
2019-04-01T10:35:00.659Z,935.46
2019-04-01T10:36:00.650Z,935.45
2019-04-01T10:37:00.636Z,935.50
2019-04-01T10:38:00.641Z,935.48
2019-04-01T10:39:00.642Z,935.50
2019-04-01T10:40:00.935Z,935.49
2019-04-01T10:41:00.593Z,935.42
2019-04-01T10:42:00.603Z,935.48
2019-04-01T10:43:00.588Z,935.43
2019-04-01T10:44:00.560Z,935.38
2019-04-01T10:45:00.562Z,935.40
2019-04-01T10:46:00.541Z,935.43
2019-04-01T10:47:00.575Z,935.40
2019-04-01T10:48:00.542Z,935.40
2019-04-01T10:49:00.552Z,935.42
2019-04-01T10:50:00.520Z,935.36
2019-04-01T10:51:00.486Z,935.42
2019-04-01T10:52:00.539Z,935.39
2019-04-01T10:53:00.578Z,935.41
2019-04-01T10:54:00.478Z,935.42
2019-04-01T10:55:00.574Z,935.38
2019-04-01T10:56:00.528Z,935.43
2019-04-01T10:57:00.450Z,935.38
2019-04-01T10:58:00.504Z,935.41
2019-04-01T10:59:00.433Z,935.37
2019-04-01T11:00:00.498Z,935.36
2019-04-01T11:01:00.418Z,935.37
2019-04-01T11:02:00.388Z,935.37
2019-04-01T11:03:00.410Z,935.37
2019-04-01T11:04:00.391Z,935.38
2019-04-01T11:05:00.460Z,935.37
2019-04-01T11:06:00.460Z,935.39
2019-04-01T11:07:00.395Z,935.39
2019-04-01T11:08:00.396Z,935.36
2019-04-01T11:09:00.355Z,935.34
2019-04-01T11:10:00.369Z,935.32
2019-04-01T11:11:00.278Z,935.31
2019-04-01T11:12:00.256Z,935.29
2019-04-01T11:13:00.259Z,935.32
2019-04-01T11:14:00.234Z,935.29
2019-04-01T11:15:00.440Z,935.30
2019-04-01T11:16:00.213Z,935.25
2019-04-01T11:17:04.033Z,935.25
2019-04-01T11:18:00.205Z,935.27
2019-04-01T11:19:00.183Z,935.26
2019-04-01T11:20:00.372Z,935.20
2019-04-01T11:21:00.158Z,935.25
2019-04-01T11:22:00.158Z,935.25
2019-04-01T11:23:02.600Z,935.23
2019-04-01T11:24:00.180Z,935.24
2019-04-01T11:25:00.384Z,935.25
2019-04-01T11:26:00.107Z,935.29
2019-04-01T11:27:00.092Z,935.31
2019-04-01T11:28:00.096Z,935.32
2019-04-01T11:29:00.078Z,935.28
2019-04-01T11:30:00.066Z,935.24
2019-04-01T11:31:00.047Z,935.19
2019-04-01T11:32:00.071Z,935.21
2019-04-01T11:33:00.053Z,935.24
2019-04-01T11:34:00.026Z,935.16
2019-04-01T11:35:00.031Z,935.18
2019-04-01T11:36:00.029Z,935.17
2019-04-01T11:37:00.008Z,935.16
2019-04-01T11:38:00.016Z,935.16
2019-04-01T11:39:00.023Z,935.18
2019-04-01T11:39:59.960Z,935.14
2019-04-01T11:40:59.965Z,935.13
2019-04-01T11:42:01.592Z,935.17
2019-04-01T11:42:59.954Z,935.17
2019-04-01T11:43:59.907Z,935.08
2019-04-01T11:44:59.892Z,935.10
2019-04-01T11:45:59.925Z,935.15
2019-04-01T11:46:59.897Z,935.15
2019-04-01T11:47:59.875Z,935.11
2019-04-01T11:48:59.895Z,935.07
2019-04-01T11:49:59.840Z,935.10
2019-04-01T11:50:59.823Z,935.11
2019-04-01T11:51:59.908Z,935.06
2019-04-01T11:52:59.819Z,935.07
2019-04-01T11:53:59.790Z,935.05
2019-04-01T11:54:59.778Z,935.04
2019-04-01T11:55:59.766Z,934.97
2019-04-01T11:56:59.757Z,935.04
2019-04-01T11:57:59.758Z,935.02
2019-04-01T11:58:59.740Z,935.04
2019-04-01T11:59:59.728Z,934.97
2019-04-01T12:00:59.721Z,935.03
2019-04-01T12:01:59.702Z,935.01
2019-04-01T12:02:59.704Z,934.97
2019-04-01T12:03:59.682Z,935.02
2019-04-01T12:04:59.702Z,934.99
2019-04-01T12:05:59.658Z,935.01
2019-04-01T12:07:01.952Z,934.91
2019-04-01T12:07:59.649Z,934.96
2019-04-01T12:08:59.625Z,934.96
2019-04-01T12:09:59.614Z,934.90
2019-04-01T12:10:59.609Z,934.88
2019-04-01T12:11:59.594Z,934.87
2019-04-01T12:13:00.143Z,934.85
2019-04-01T12:13:59.569Z,934.85
2019-04-01T12:14:59.560Z,934.91
2019-04-01T12:15:59.548Z,934.87
2019-04-01T12:16:59.542Z,934.81
2019-04-01T12:17:59.530Z,934.82
2019-04-01T12:18:59.549Z,934.85
2019-04-01T12:19:59.505Z,934.79
2019-04-01T12:20:59.495Z,934.85
2019-04-01T12:21:59.483Z,934.84
2019-04-01T12:22:59.474Z,934.81
2019-04-01T12:23:59.483Z,934.81
2019-04-01T12:24:59.452Z,934.83
2019-04-01T12:26:13.866Z,934.76
2019-04-01T12:27:00.456Z,934.76
2019-04-01T12:27:59.423Z,934.77